sensor_id;sensor_type;location;lat;lon;timestamp;noise_LAeq;noise_LA_min;noise_LA_max;noise_LA01;noise_LA95
81666;Laerm;71083;51.796;10.952;2024-03-02T00:00:18;60.47;31.68;72.70;;
81666;Laerm;71083;51.796;10.952;2024-03-02T00:02:45;57.95;31.14;70.47;;
81666;Laerm;71083;51.796;10.952;2024-03-02T00:05:11;60.52;30.03;76.82;;
81666;Laerm;71083;51.796;10.952;2024-03-02T00:07:37;58.91;28.56;71.19;;
81666;Laerm;71083;51.796;10.952;2024-03-02T00:10:05;55.88;28.58;69.33;;
81666;Laerm;71083;51.796;10.952;2024-03-02T00:12:32;55.87;28.32;72.47;;
81666;Laerm;71083;51.796;10.952;2024-03-02T00:14:58;58.24;29.19;75.20;;
81666;Laerm;71083;51.796;10.952;2024-03-02T00:17:27;59.67;28.27;77.20;;
81666;Laerm;71083;51.796;10.952;2024-03-02T00:19:53;59.77;29.01;73.01;;
81666;Laerm;71083;51.796;10.952;2024-03-02T00:22:19;54.20;28.17;70.55;;
81666;Laerm;71083;51.796;10.952;2024-03-02T00:24:44;53.80;28.48;67.22;;
81666;Laerm;71083;51.796;10.952;2024-03-02T00:27:09;55.90;28.18;75.06;;
81666;Laerm;71083;51.796;10.952;2024-03-02T00:29:38;37.63;28.04;49.45;;
81666;Laerm;71083;51.796;10.952;2024-03-02T00:32:07;58.01;28.21;72.50;;
81666;Laerm;71083;51.796;10.952;2024-03-02T00:34:37;53.33;28.18;71.18;;
81666;Laerm;71083;51.796;10.952;2024-03-02T00:37:02;58.11;28.19;76.86;;
81666;Laerm;71083;51.796;10.952;2024-03-02T00:39:28;57.49;29.02;73.21;;
81666;Laerm;71083;51.796;10.952;2024-03-02T00:41:54;53.87;28.44;71.36;;
81666;Laerm;71083;51.796;10.952;2024-03-02T00:44:19;50.45;27.92;67.62;;
81666;Laerm;71083;51.796;10.952;2024-03-02T00:46:47;57.06;28.32;72.99;;
81666;Laerm;71083;51.796;10.952;2024-03-02T00:51:41;28.65;28.03;30.78;;
81666;Laerm;71083;51.796;10.952;2024-03-02T00:54:07;35.28;28.02;44.07;;
81666;Laerm;71083;51.796;10.952;2024-03-02T00:56:34;58.95;28.41;74.63;;
81666;Laerm;71083;51.796;10.952;2024-03-02T00:58:59;55.39;28.79;72.21;;
81666;Laerm;71083;51.796;10.952;2024-03-02T01:01:25;48.13;28.04;63.39;;
81666;Laerm;71083;51.796;10.952;2024-03-02T01:03:50;56.84;28.46;72.50;;
81666;Laerm;71083;51.796;10.952;2024-03-02T01:06:16;35.81;28.29;46.99;;
81666;Laerm;71083;51.796;10.952;2024-03-02T01:08:41;29.08;28.05;35.02;;
81666;Laerm;71083;51.796;10.952;2024-03-02T01:11:07;36.00;28.15;50.19;;
81666;Laerm;71083;51.796;10.952;2024-03-02T01:13:32;29.15;28.10;32.11;;
81666;Laerm;71083;51.796;10.952;2024-03-02T01:15:58;34.23;27.94;49.67;;
81666;Laerm;71083;51.796;10.952;2024-03-02T01:18:24;50.76;27.94;66.65;;
81666;Laerm;71083;51.796;10.952;2024-03-02T01:20:49;54.71;27.89;72.80;;
81666;Laerm;71083;51.796;10.952;2024-03-02T01:23:19;36.21;28.31;48.56;;
81666;Laerm;71083;51.796;10.952;2024-03-02T01:25:45;51.40;28.08;68.62;;
81666;Laerm;71083;51.796;10.952;2024-03-02T01:28:11;39.98;28.04;52.79;;
81666;Laerm;71083;51.796;10.952;2024-03-02T01:30:36;57.07;31.02;73.46;;
81666;Laerm;71083;51.796;10.952;2024-03-02T01:33:01;58.30;28.73;74.56;;
81666;Laerm;71083;51.796;10.952;2024-03-02T01:35:27;58.51;28.27;74.41;;
81666;Laerm;71083;51.796;10.952;2024-03-02T01:37:53;28.84;27.85;36.69;;
81666;Laerm;71083;51.796;10.952;2024-03-02T01:40:18;29.32;27.91;48.41;;
81666;Laerm;71083;51.796;10.952;2024-03-02T01:42:44;32.44;28.36;51.99;;
81666;Laerm;71083;51.796;10.952;2024-03-02T01:45:09;49.49;28.22;65.98;;
81666;Laerm;71083;51.796;10.952;2024-03-02T01:47:35;59.37;28.72;75.28;;
81666;Laerm;71083;51.796;10.952;2024-03-02T01:50:00;28.77;27.84;31.60;;
81666;Laerm;71083;51.796;10.952;2024-03-02T01:52:26;56.90;28.04;75.62;;
81666;Laerm;71083;51.796;10.952;2024-03-02T01:54:52;61.10;28.09;79.22;;
81666;Laerm;71083;51.796;10.952;2024-03-02T01:57:17;31.18;28.03;41.23;;
81666;Laerm;71083;51.796;10.952;2024-03-02T01:59:43;53.38;28.17;70.35;;
81666;Laerm;71083;51.796;10.952;2024-03-02T02:02:08;49.58;28.18;64.87;;
81666;Laerm;71083;51.796;10.952;2024-03-02T02:04:33;51.97;27.97;69.47;;
81666;Laerm;71083;51.796;10.952;2024-03-02T02:06:59;41.35;28.05;53.54;;
81666;Laerm;71083;51.796;10.952;2024-03-02T02:09:25;57.50;28.26;74.35;;
81666;Laerm;71083;51.796;10.952;2024-03-02T02:11:50;52.22;28.12;69.13;;
81666;Laerm;71083;51.796;10.952;2024-03-02T02:14:15;29.48;28.13;35.30;;
81666;Laerm;71083;51.796;10.952;2024-03-02T02:16:41;31.75;29.03;41.39;;
81666;Laerm;71083;51.796;10.952;2024-03-02T02:19:06;60.29;29.39;75.11;;
81666;Laerm;71083;51.796;10.952;2024-03-02T02:21:31;55.50;30.48;72.57;;
81666;Laerm;71083;51.796;10.952;2024-03-02T02:23:56;53.36;28.23;71.63;;
81666;Laerm;71083;51.796;10.952;2024-03-02T02:26:22;28.71;27.84;30.78;;
81666;Laerm;71083;51.796;10.952;2024-03-02T02:28:47;57.49;28.20;73.36;;
81666;Laerm;71083;51.796;10.952;2024-03-02T02:31:13;41.09;27.76;56.10;;
81666;Laerm;71083;51.796;10.952;2024-03-02T02:33:41;56.39;27.63;71.36;;
81666;Laerm;71083;51.796;10.952;2024-03-02T02:36:06;56.00;29.31;71.90;;
81666;Laerm;71083;51.796;10.952;2024-03-02T02:38:32;53.60;27.98;69.90;;
81666;Laerm;71083;51.796;10.952;2024-03-02T02:41:00;54.05;28.29;72.22;;
81666;Laerm;71083;51.796;10.952;2024-03-02T02:43:25;47.04;28.05;62.56;;
81666;Laerm;71083;51.796;10.952;2024-03-02T02:45:51;56.75;27.95;71.19;;
81666;Laerm;71083;51.796;10.952;2024-03-02T02:48:16;36.96;28.03;53.81;;
81666;Laerm;71083;51.796;10.952;2024-03-02T02:50:41;58.72;28.61;72.93;;
81666;Laerm;71083;51.796;10.952;2024-03-02T02:53:07;59.59;28.21;75.70;;
81666;Laerm;71083;51.796;10.952;2024-03-02T02:55:34;52.80;27.95;70.74;;
81666;Laerm;71083;51.796;10.952;2024-03-02T02:58:00;29.06;28.12;42.38;;
81666;Laerm;71083;51.796;10.952;2024-03-02T03:00:25;29.02;28.02;42.31;;
81666;Laerm;71083;51.796;10.952;2024-03-02T03:02:50;58.42;27.85;73.90;;
81666;Laerm;71083;51.796;10.952;2024-03-02T03:05:16;52.13;27.97;68.12;;
81666;Laerm;71083;51.796;10.952;2024-03-02T03:07:41;54.73;28.24;71.00;;
81666;Laerm;71083;51.796;10.952;2024-03-02T03:10:07;59.13;27.83;74.80;;
81666;Laerm;71083;51.796;10.952;2024-03-02T03:12:36;58.21;27.93;76.51;;
81666;Laerm;71083;51.796;10.952;2024-03-02T03:15:01;31.58;28.20;39.78;;
81666;Laerm;71083;51.796;10.952;2024-03-02T03:17:28;31.60;28.76;37.66;;
81666;Laerm;71083;51.796;10.952;2024-03-02T03:19:53;30.58;29.60;33.30;;
81666;Laerm;71083;51.796;10.952;2024-03-02T03:22:19;35.48;28.41;47.63;;
81666;Laerm;71083;51.796;10.952;2024-03-02T03:24:45;29.53;28.12;35.90;;
81666;Laerm;71083;51.796;10.952;2024-03-02T03:27:10;57.14;28.23;76.10;;
81666;Laerm;71083;51.796;10.952;2024-03-02T03:29:38;60.97;28.41;75.59;;
81666;Laerm;71083;51.796;10.952;2024-03-02T03:32:04;59.71;28.79;75.49;;
81666;Laerm;71083;51.796;10.952;2024-03-02T03:34:32;38.44;28.31;48.68;;
81666;Laerm;71083;51.796;10.952;2024-03-02T03:36:57;35.98;29.07;45.37;;
81666;Laerm;71083;51.796;10.952;2024-03-02T03:39:23;33.48;27.93;51.64;;
81666;Laerm;71083;51.796;10.952;2024-03-02T03:41:48;41.11;27.91;55.60;;
81666;Laerm;71083;51.796;10.952;2024-03-02T03:44:13;55.74;28.82;70.43;;
81666;Laerm;71083;51.796;10.952;2024-03-02T03:46:38;55.61;28.23;72.42;;
81666;Laerm;71083;51.796;10.952;2024-03-02T03:49:04;54.35;28.35;70.26;;
81666;Laerm;71083;51.796;10.952;2024-03-02T03:51:30;56.97;27.96;73.76;;
81666;Laerm;71083;51.796;10.952;2024-03-02T03:53:55;54.39;27.97;68.67;;
81666;Laerm;71083;51.796;10.952;2024-03-02T03:56:20;41.05;28.10;57.32;;
81666;Laerm;71083;51.796;10.952;2024-03-02T03:58:46;60.11;29.39;74.74;;
81666;Laerm;71083;51.796;10.952;2024-03-02T04:01:11;57.32;28.76;70.09;;
81666;Laerm;71083;51.796;10.952;2024-03-02T04:03:37;54.36;28.39;71.88;;
81666;Laerm;71083;51.796;10.952;2024-03-02T04:06:03;42.14;28.48;54.26;;
81666;Laerm;71083;51.796;10.952;2024-03-02T04:08:28;56.41;28.77;73.15;;
81666;Laerm;71083;51.796;10.952;2024-03-02T04:10:53;49.86;28.22;69.29;;
81666;Laerm;71083;51.796;10.952;2024-03-02T04:13:18;60.52;29.80;75.82;;
81666;Laerm;71083;51.796;10.952;2024-03-02T04:15:44;57.02;30.13;69.80;;
81666;Laerm;71083;51.796;10.952;2024-03-02T04:18:09;62.76;29.49;77.24;;
81666;Laerm;71083;51.796;10.952;2024-03-02T04:20:34;57.75;29.48;72.34;;
81666;Laerm;71083;51.796;10.952;2024-03-02T04:23:00;56.33;29.81;72.03;;
81666;Laerm;71083;51.796;10.952;2024-03-02T04:25:25;55.14;30.08;72.12;;
81666;Laerm;71083;51.796;10.952;2024-03-02T04:27:50;58.71;31.70;69.42;;
81666;Laerm;71083;51.796;10.952;2024-03-02T04:30:16;61.28;35.66;76.40;;
81666;Laerm;71083;51.796;10.952;2024-03-02T04:32:42;62.69;35.39;71.96;;
81666;Laerm;71083;51.796;10.952;2024-03-02T04:35:11;63.41;34.41;74.63;;
81666;Laerm;71083;51.796;10.952;2024-03-02T04:37:37;64.00;30.86;77.63;;
81666;Laerm;71083;51.796;10.952;2024-03-02T04:40:02;56.27;30.22;71.16;;
81666;Laerm;71083;51.796;10.952;2024-03-02T04:42:28;60.83;33.69;72.15;;
81666;Laerm;71083;51.796;10.952;2024-03-02T04:44:53;58.09;30.45;71.69;;
81666;Laerm;71083;51.796;10.952;2024-03-02T04:47:18;59.94;30.67;74.22;;
81666;Laerm;71083;51.796;10.952;2024-03-02T04:49:44;59.00;30.54;74.00;;
81666;Laerm;71083;51.796;10.952;2024-03-02T04:52:09;61.57;35.24;74.12;;
81666;Laerm;71083;51.796;10.952;2024-03-02T04:54:34;62.60;33.98;76.56;;
81666;Laerm;71083;51.796;10.952;2024-03-02T04:57:19;58.99;31.02;72.44;;
81666;Laerm;71083;51.796;10.952;2024-03-02T04:59:45;58.85;31.05;74.14;;
81666;Laerm;71083;51.796;10.952;2024-03-02T05:02:10;51.53;29.33;66.15;;
81666;Laerm;71083;51.796;10.952;2024-03-02T05:04:35;57.90;32.92;71.31;;
81666;Laerm;71083;51.796;10.952;2024-03-02T05:07:01;61.71;29.69;75.65;;
81666;Laerm;71083;51.796;10.952;2024-03-02T05:09:26;50.98;30.75;66.74;;
81666;Laerm;71083;51.796;10.952;2024-03-02T05:11:51;51.83;31.63;65.55;;
81666;Laerm;71083;51.796;10.952;2024-03-02T05:14:48;58.07;31.23;73.17;;
81666;Laerm;71083;51.796;10.952;2024-03-02T05:17:13;59.26;31.33;72.34;;
81666;Laerm;71083;51.796;10.952;2024-03-02T05:19:38;60.54;33.58;72.67;;
81666;Laerm;71083;51.796;10.952;2024-03-02T05:22:04;56.48;32.74;69.34;;
81666;Laerm;71083;51.796;10.952;2024-03-02T05:24:29;59.80;35.87;73.13;;
81666;Laerm;71083;51.796;10.952;2024-03-02T05:26:54;61.76;37.93;73.55;;
81666;Laerm;71083;51.796;10.952;2024-03-02T05:29:20;59.71;32.59;74.82;;
81666;Laerm;71083;51.796;10.952;2024-03-02T05:31:46;59.31;34.65;74.30;;
81666;Laerm;71083;51.796;10.952;2024-03-02T05:34:11;55.34;36.05;69.18;;
81666;Laerm;71083;51.796;10.952;2024-03-02T05:36:36;60.70;35.72;72.89;;
81666;Laerm;71083;51.796;10.952;2024-03-02T05:39:03;58.77;37.08;72.20;;
81666;Laerm;71083;51.796;10.952;2024-03-02T05:41:30;59.43;37.81;69.28;;
81666;Laerm;71083;51.796;10.952;2024-03-02T05:43:56;64.44;38.09;80.95;;
81666;Laerm;71083;51.796;10.952;2024-03-02T05:46:21;60.12;36.75;74.80;;
81666;Laerm;71083;51.796;10.952;2024-03-02T05:48:47;63.30;33.24;79.39;;
81666;Laerm;71083;51.796;10.952;2024-03-02T05:51:12;58.63;34.34;72.27;;
81666;Laerm;71083;51.796;10.952;2024-03-02T05:53:37;61.93;35.30;73.67;;
81666;Laerm;71083;51.796;10.952;2024-03-02T05:56:03;61.76;38.45;74.55;;
81666;Laerm;71083;51.796;10.952;2024-03-02T05:58:29;61.86;36.93;73.37;;
81666;Laerm;71083;51.796;10.952;2024-03-02T06:01:13;62.71;37.53;76.39;;
81666;Laerm;71083;51.796;10.952;2024-03-02T06:03:38;56.64;33.62;72.96;;
81666;Laerm;71083;51.796;10.952;2024-03-02T06:06:03;61.52;33.04;73.42;;
81666;Laerm;71083;51.796;10.952;2024-03-02T06:08:29;63.45;39.03;75.75;;
81666;Laerm;71083;51.796;10.952;2024-03-02T06:10:54;62.42;37.25;73.40;;
81666;Laerm;71083;51.796;10.952;2024-03-02T06:13:21;60.53;37.12;74.91;;
81666;Laerm;71083;51.796;10.952;2024-03-02T06:15:46;59.63;36.73;72.51;;
81666;Laerm;71083;51.796;10.952;2024-03-02T06:18:11;65.27;40.65;75.48;;
81666;Laerm;71083;51.796;10.952;2024-03-02T06:20:37;60.13;36.12;72.95;;
81666;Laerm;71083;51.796;10.952;2024-03-02T06:23:02;65.53;37.24;78.40;;
81666;Laerm;71083;51.796;10.952;2024-03-02T06:25:28;63.29;36.93;73.87;;
81666;Laerm;71083;51.796;10.952;2024-03-02T06:27:53;61.96;38.04;72.64;;
81666;Laerm;71083;51.796;10.952;2024-03-02T06:30:18;63.44;38.29;74.40;;
81666;Laerm;71083;51.796;10.952;2024-03-02T06:32:43;62.39;39.50;75.00;;
81666;Laerm;71083;51.796;10.952;2024-03-02T06:35:09;65.21;41.09;78.89;;
81666;Laerm;71083;51.796;10.952;2024-03-02T06:37:35;65.31;40.92;75.42;;
81666;Laerm;71083;51.796;10.952;2024-03-02T06:40:01;60.73;37.70;74.29;;
81666;Laerm;71083;51.796;10.952;2024-03-02T06:42:26;64.59;41.01;76.20;;
81666;Laerm;71083;51.796;10.952;2024-03-02T06:44:51;64.54;36.34;74.44;;
81666;Laerm;71083;51.796;10.952;2024-03-02T06:47:16;61.02;35.39;74.16;;
81666;Laerm;71083;51.796;10.952;2024-03-02T06:49:42;60.79;38.30;74.79;;
81666;Laerm;71083;51.796;10.952;2024-03-02T06:52:08;61.59;41.64;73.88;;
81666;Laerm;71083;51.796;10.952;2024-03-02T06:54:33;62.21;39.57;70.95;;
81666;Laerm;71083;51.796;10.952;2024-03-02T06:56:59;64.98;40.45;80.20;;
81666;Laerm;71083;51.796;10.952;2024-03-02T06:59:25;60.28;40.28;70.85;;
81666;Laerm;71083;51.796;10.952;2024-03-02T07:01:50;63.00;39.59;73.64;;
81666;Laerm;71083;51.796;10.952;2024-03-02T07:04:15;62.31;40.94;83.67;;
81666;Laerm;71083;51.796;10.952;2024-03-02T07:06:40;63.95;42.99;72.76;;
81666;Laerm;71083;51.796;10.952;2024-03-02T07:09:06;63.81;41.25;75.29;;
81666;Laerm;71083;51.796;10.952;2024-03-02T07:11:35;63.35;40.30;75.61;;
81666;Laerm;71083;51.796;10.952;2024-03-02T07:14:01;63.44;39.14;73.49;;
81666;Laerm;71083;51.796;10.952;2024-03-02T07:16:26;63.31;40.26;72.12;;
81666;Laerm;71083;51.796;10.952;2024-03-02T07:18:58;64.25;39.13;74.24;;
81666;Laerm;71083;51.796;10.952;2024-03-02T07:21:24;66.16;37.79;78.60;;
81666;Laerm;71083;51.796;10.952;2024-03-02T07:23:49;60.60;40.36;74.17;;
81666;Laerm;71083;51.796;10.952;2024-03-02T07:26:15;64.17;40.94;73.09;;
81666;Laerm;71083;51.796;10.952;2024-03-02T07:28:41;65.16;42.86;75.05;;
81666;Laerm;71083;51.796;10.952;2024-03-02T07:31:07;62.89;40.77;74.39;;
81666;Laerm;71083;51.796;10.952;2024-03-02T07:33:32;65.32;40.77;74.68;;
81666;Laerm;71083;51.796;10.952;2024-03-02T07:35:57;63.75;41.15;73.81;;
81666;Laerm;71083;51.796;10.952;2024-03-02T07:38:24;64.69;45.66;75.32;;
81666;Laerm;71083;51.796;10.952;2024-03-02T07:40:50;65.93;42.00;75.74;;
81666;Laerm;71083;51.796;10.952;2024-03-02T07:43:18;66.81;47.14;74.89;;
81666;Laerm;71083;51.796;10.952;2024-03-02T07:45:47;66.32;45.50;76.30;;
81666;Laerm;71083;51.796;10.952;2024-03-02T07:48:13;64.85;40.93;75.60;;
81666;Laerm;71083;51.796;10.952;2024-03-02T07:50:38;64.74;42.16;74.81;;
81666;Laerm;71083;51.796;10.952;2024-03-02T07:53:04;65.93;40.51;74.82;;
81666;Laerm;71083;51.796;10.952;2024-03-02T07:55:29;67.86;41.33;76.25;;
81666;Laerm;71083;51.796;10.952;2024-03-02T07:57:55;65.25;43.77;74.58;;
81666;Laerm;71083;51.796;10.952;2024-03-02T08:00:21;66.86;48.05;75.39;;
81666;Laerm;71083;51.796;10.952;2024-03-02T08:02:47;64.41;42.01;73.13;;
81666;Laerm;71083;51.796;10.952;2024-03-02T08:05:12;66.83;47.34;75.33;;
81666;Laerm;71083;51.796;10.952;2024-03-02T08:07:38;65.20;44.69;76.54;;
81666;Laerm;71083;51.796;10.952;2024-03-02T08:10:04;65.42;42.20;73.92;;
81666;Laerm;71083;51.796;10.952;2024-03-02T08:12:29;65.62;40.75;76.10;;
81666;Laerm;71083;51.796;10.952;2024-03-02T08:14:54;66.64;41.57;75.57;;
81666;Laerm;71083;51.796;10.952;2024-03-02T08:17:20;65.32;47.34;74.52;;
81666;Laerm;71083;51.796;10.952;2024-03-02T08:19:45;66.18;46.20;74.57;;
81666;Laerm;71083;51.796;10.952;2024-03-02T08:22:11;66.36;45.01;73.30;;
81666;Laerm;71083;51.796;10.952;2024-03-02T08:24:37;65.77;43.48;73.10;;
81666;Laerm;71083;51.796;10.952;2024-03-02T08:27:02;65.21;40.31;76.90;;
81666;Laerm;71083;51.796;10.952;2024-03-02T08:29:28;67.03;53.09;73.86;;
81666;Laerm;71083;51.796;10.952;2024-03-02T08:31:54;66.36;40.67;73.20;;
81666;Laerm;71083;51.796;10.952;2024-03-02T08:34:19;66.04;43.72;76.43;;
81666;Laerm;71083;51.796;10.952;2024-03-02T08:36:45;66.60;48.39;73.80;;
81666;Laerm;71083;51.796;10.952;2024-03-02T08:39:11;65.31;40.16;75.72;;
81666;Laerm;71083;51.796;10.952;2024-03-02T08:41:40;66.17;42.41;75.10;;
81666;Laerm;71083;51.796;10.952;2024-03-02T08:44:06;67.04;45.24;74.60;;
81666;Laerm;71083;51.796;10.952;2024-03-02T08:46:31;67.46;50.29;78.44;;
81666;Laerm;71083;51.796;10.952;2024-03-02T08:48:56;67.21;47.92;73.11;;
81666;Laerm;71083;51.796;10.952;2024-03-02T08:51:22;66.13;49.71;72.86;;
81666;Laerm;71083;51.796;10.952;2024-03-02T08:53:47;68.18;50.66;75.92;;
81666;Laerm;71083;51.796;10.952;2024-03-02T08:56:12;63.81;47.94;73.60;;
81666;Laerm;71083;51.796;10.952;2024-03-02T08:58:38;67.24;51.81;75.83;;
81666;Laerm;71083;51.796;10.952;2024-03-02T09:01:03;66.81;50.70;73.41;;
81666;Laerm;71083;51.796;10.952;2024-03-02T09:03:28;67.30;46.80;73.84;;
81666;Laerm;71083;51.796;10.952;2024-03-02T09:05:54;65.59;49.05;74.09;;
81666;Laerm;71083;51.796;10.952;2024-03-02T09:08:19;67.16;42.97;75.67;;
81666;Laerm;71083;51.796;10.952;2024-03-02T09:10:45;65.82;45.00;72.80;;
81666;Laerm;71083;51.796;10.952;2024-03-02T09:13:10;67.20;55.34;76.92;;
81666;Laerm;71083;51.796;10.952;2024-03-02T09:15:35;62.77;48.07;71.67;;
81666;Laerm;71083;51.796;10.952;2024-03-02T09:18:02;62.88;53.66;71.72;;
81666;Laerm;71083;51.796;10.952;2024-03-02T09:20:28;63.74;44.74;72.04;;
81666;Laerm;71083;51.796;10.952;2024-03-02T09:22:53;65.87;44.51;73.20;;
81666;Laerm;71083;51.796;10.952;2024-03-02T09:25:18;65.21;44.17;74.16;;
81666;Laerm;71083;51.796;10.952;2024-03-02T09:27:44;64.70;43.41;74.35;;
81666;Laerm;71083;51.796;10.952;2024-03-02T09:30:09;62.39;48.87;72.91;;
81666;Laerm;71083;51.796;10.952;2024-03-02T09:32:35;63.06;49.41;75.27;;
81666;Laerm;71083;51.796;10.952;2024-03-02T09:35:01;65.29;47.20;73.83;;
81666;Laerm;71083;51.796;10.952;2024-03-02T09:37:26;65.35;43.28;80.99;;
81666;Laerm;71083;51.796;10.952;2024-03-02T09:39:53;65.39;47.61;73.89;;
81666;Laerm;71083;51.796;10.952;2024-03-02T09:42:19;66.55;44.62;76.29;;
81666;Laerm;71083;51.796;10.952;2024-03-02T09:44:44;66.76;45.27;73.09;;
81666;Laerm;71083;51.796;10.952;2024-03-02T09:47:10;64.64;49.67;74.22;;
81666;Laerm;71083;51.796;10.952;2024-03-02T09:49:35;66.29;45.06;75.48;;
81666;Laerm;71083;51.796;10.952;2024-03-02T09:52:01;64.98;53.29;74.31;;
81666;Laerm;71083;51.796;10.952;2024-03-02T09:54:28;65.94;49.48;77.33;;
81666;Laerm;71083;51.796;10.952;2024-03-02T09:56:53;65.44;55.65;75.01;;
81666;Laerm;71083;51.796;10.952;2024-03-02T09:59:19;65.49;42.21;75.16;;
81666;Laerm;71083;51.796;10.952;2024-03-02T10:01:57;64.44;50.98;76.02;;
81666;Laerm;71083;51.796;10.952;2024-03-02T10:04:25;64.43;39.70;75.80;;
81666;Laerm;71083;51.796;10.952;2024-03-02T10:06:51;63.82;44.78;74.58;;
81666;Laerm;71083;51.796;10.952;2024-03-02T10:09:26;65.69;42.10;76.35;;
81666;Laerm;71083;51.796;10.952;2024-03-02T10:11:52;76.90;48.18;96.89;;
81666;Laerm;71083;51.796;10.952;2024-03-02T10:14:17;81.58;43.54;99.94;;
81666;Laerm;71083;51.796;10.952;2024-03-02T10:16:43;63.56;50.30;73.25;;
81666;Laerm;71083;51.796;10.952;2024-03-02T10:19:19;64.47;46.65;72.99;;
81666;Laerm;71083;51.796;10.952;2024-03-02T10:21:45;64.70;43.60;75.55;;
81666;Laerm;71083;51.796;10.952;2024-03-02T10:24:11;64.45;48.26;74.02;;
81666;Laerm;71083;51.796;10.952;2024-03-02T10:26:37;68.62;41.85;83.56;;
81666;Laerm;71083;51.796;10.952;2024-03-02T10:29:02;67.40;48.15;77.70;;
81666;Laerm;71083;51.796;10.952;2024-03-02T10:31:28;66.32;52.68;73.90;;
81666;Laerm;71083;51.796;10.952;2024-03-02T10:33:54;67.39;54.57;75.94;;
81666;Laerm;71083;51.796;10.952;2024-03-02T10:36:19;67.53;44.10;73.01;;
81666;Laerm;71083;51.796;10.952;2024-03-02T10:38:45;68.89;56.68;81.58;;
81666;Laerm;71083;51.796;10.952;2024-03-02T10:41:15;67.43;55.44;81.29;;
81666;Laerm;71083;51.796;10.952;2024-03-02T10:43:41;66.34;48.81;74.59;;
81666;Laerm;71083;51.796;10.952;2024-03-02T10:46:07;66.71;48.36;73.07;;
81666;Laerm;71083;51.796;10.952;2024-03-02T10:48:32;68.00;41.54;74.16;;
81666;Laerm;71083;51.796;10.952;2024-03-02T10:51:00;66.87;52.44;72.52;;
81666;Laerm;71083;51.796;10.952;2024-03-02T10:53:27;66.95;47.87;75.99;;
81666;Laerm;71083;51.796;10.952;2024-03-02T10:55:53;65.71;43.54;73.41;;
81666;Laerm;71083;51.796;10.952;2024-03-02T10:58:22;65.96;45.31;72.59;;
81666;Laerm;71083;51.796;10.952;2024-03-02T11:00:50;66.73;46.24;75.53;;
81666;Laerm;71083;51.796;10.952;2024-03-02T11:03:15;68.19;51.13;85.98;;
81666;Laerm;71083;51.796;10.952;2024-03-02T11:05:43;65.39;49.52;73.89;;
81666;Laerm;71083;51.796;10.952;2024-03-02T11:08:12;68.19;47.14;76.82;;
81666;Laerm;71083;51.796;10.952;2024-03-02T11:10:41;66.87;44.69;75.69;;
81666;Laerm;71083;51.796;10.952;2024-03-02T11:13:09;65.76;46.02;72.21;;
81666;Laerm;71083;51.796;10.952;2024-03-02T11:15:36;66.64;47.18;73.62;;
81666;Laerm;71083;51.796;10.952;2024-03-02T11:18:03;66.14;45.65;74.22;;
81666;Laerm;71083;51.796;10.952;2024-03-02T11:20:30;66.56;46.42;76.05;;
81666;Laerm;71083;51.796;10.952;2024-03-02T11:22:56;68.23;54.20;77.54;;
81666;Laerm;71083;51.796;10.952;2024-03-02T11:25:25;65.73;52.42;72.51;;
81666;Laerm;71083;51.796;10.952;2024-03-02T11:32:59;65.74;42.51;73.84;;
81666;Laerm;71083;51.796;10.952;2024-03-02T11:35:24;68.47;48.91;78.93;;
81666;Laerm;71083;51.796;10.952;2024-03-02T11:37:50;67.36;48.21;75.99;;
81666;Laerm;71083;51.796;10.952;2024-03-02T11:40:21;66.35;38.02;75.26;;
81666;Laerm;71083;51.796;10.952;2024-03-02T11:42:46;65.73;34.11;74.10;;
81666;Laerm;71083;51.796;10.952;2024-03-02T11:45:12;67.34;54.30;73.98;;
81666;Laerm;71083;51.796;10.952;2024-03-02T11:47:37;66.89;47.17;80.34;;
81666;Laerm;71083;51.796;10.952;2024-03-02T11:50:02;70.38;47.06;87.38;;
81666;Laerm;71083;51.796;10.952;2024-03-02T11:52:31;66.47;44.43;79.92;;
81666;Laerm;71083;51.796;10.952;2024-03-02T11:54:58;67.71;48.95;82.20;;
81666;Laerm;71083;51.796;10.952;2024-03-02T11:57:23;67.14;44.51;75.03;;
81666;Laerm;71083;51.796;10.952;2024-03-02T11:59:48;64.61;50.41;74.73;;
81666;Laerm;71083;51.796;10.952;2024-03-02T12:02:18;69.99;46.16;85.50;;
81666;Laerm;71083;51.796;10.952;2024-03-02T12:04:43;67.01;51.52;78.84;;
81666;Laerm;71083;51.796;10.952;2024-03-02T12:07:10;66.44;45.16;74.47;;
81666;Laerm;71083;51.796;10.952;2024-03-02T12:09:36;68.83;50.45;74.87;;
81666;Laerm;71083;51.796;10.952;2024-03-02T12:12:02;66.61;43.55;76.84;;
81666;Laerm;71083;51.796;10.952;2024-03-02T12:14:28;66.41;48.73;75.47;;
81666;Laerm;71083;51.796;10.952;2024-03-02T12:16:54;67.96;41.27;74.40;;
81666;Laerm;71083;51.796;10.952;2024-03-02T12:19:20;67.43;52.13;77.06;;
81666;Laerm;71083;51.796;10.952;2024-03-02T12:21:46;65.76;52.75;73.97;;
81666;Laerm;71083;51.796;10.952;2024-03-02T12:24:11;71.75;47.29;90.62;;
81666;Laerm;71083;51.796;10.952;2024-03-02T12:26:36;66.55;45.82;74.52;;
81666;Laerm;71083;51.796;10.952;2024-03-02T12:29:02;68.37;39.44;80.76;;
81666;Laerm;71083;51.796;10.952;2024-03-02T12:31:27;68.18;56.98;74.89;;
81666;Laerm;71083;51.796;10.952;2024-03-02T12:33:52;66.26;55.32;74.90;;
81666;Laerm;71083;51.796;10.952;2024-03-02T12:36:18;66.42;51.71;73.28;;
81666;Laerm;71083;51.796;10.952;2024-03-02T12:38:44;67.48;51.46;73.34;;
81666;Laerm;71083;51.796;10.952;2024-03-02T12:41:09;71.80;47.06;90.45;;
81666;Laerm;71083;51.796;10.952;2024-03-02T12:43:34;65.24;44.72;76.40;;
81666;Laerm;71083;51.796;10.952;2024-03-02T12:46:00;67.46;47.91;78.26;;
81666;Laerm;71083;51.796;10.952;2024-03-02T12:48:25;67.19;47.52;74.21;;
81666;Laerm;71083;51.796;10.952;2024-03-02T12:50:51;68.61;49.65;78.50;;
81666;Laerm;71083;51.796;10.952;2024-03-02T12:53:16;67.19;51.16;78.43;;
81666;Laerm;71083;51.796;10.952;2024-03-02T12:55:42;67.61;53.71;74.39;;
81666;Laerm;71083;51.796;10.952;2024-03-02T12:58:08;67.98;46.74;74.98;;
81666;Laerm;71083;51.796;10.952;2024-03-02T13:00:33;66.18;51.70;72.09;;
81666;Laerm;71083;51.796;10.952;2024-03-02T13:03:00;67.50;50.96;75.36;;
81666;Laerm;71083;51.796;10.952;2024-03-02T13:05:31;68.09;50.37;76.20;;
81666;Laerm;71083;51.796;10.952;2024-03-02T13:07:57;68.49;49.06;77.50;;
81666;Laerm;71083;51.796;10.952;2024-03-02T13:10:23;67.09;43.08;73.44;;
81666;Laerm;71083;51.796;10.952;2024-03-02T13:12:48;65.45;39.80;73.50;;
81666;Laerm;71083;51.796;10.952;2024-03-02T13:15:13;67.54;49.73;75.72;;
81666;Laerm;71083;51.796;10.952;2024-03-02T13:17:40;68.09;50.42;75.06;;
81666;Laerm;71083;51.796;10.952;2024-03-02T13:20:05;68.05;51.03;74.70;;
81666;Laerm;71083;51.796;10.952;2024-03-02T13:22:35;68.52;50.47;76.35;;
81666;Laerm;71083;51.796;10.952;2024-03-02T13:25:01;67.01;49.61;80.44;;
81666;Laerm;71083;51.796;10.952;2024-03-02T13:27:28;68.06;51.33;74.43;;
81666;Laerm;71083;51.796;10.952;2024-03-02T13:29:54;66.02;52.42;73.42;;
81666;Laerm;71083;51.796;10.952;2024-03-02T13:32:19;69.39;51.21;76.33;;